sensor_id;sensor_type;location;lat;lon;timestamp;P1;durP1;ratioP1;P2;durP2;ratioP2
20154;SDS011;10238;49.556;10.956;2023-09-19T00:02:45;6.72;;;2.47;;
20154;SDS011;10238;49.556;10.956;2023-09-19T00:05:34;2.90;;;2.70;;
20154;SDS011;10238;49.556;10.956;2023-09-19T00:08:24;4.72;;;2.92;;
20154;SDS011;10238;49.556;10.956;2023-09-19T00:11:13;3.90;;;2.70;;
20154;SDS011;10238;49.556;10.956;2023-09-19T00:14:01;3.35;;;2.60;;
20154;SDS011;10238;49.556;10.956;2023-09-19T00:16:50;3.65;;;2.33;;
20154;SDS011;10238;49.556;10.956;2023-09-19T00:19:39;2.70;;;2.50;;
20154;SDS011;10238;49.556;10.956;2023-09-19T00:22:28;4.47;;;2.78;;
20154;SDS011;10238;49.556;10.956;2023-09-19T00:25:18;4.38;;;2.60;;
20154;SDS011;10238;49.556;10.956;2023-09-19T00:28:07;3.75;;;2.72;;
20154;SDS011;10238;49.556;10.956;2023-09-19T00:30:56;4.07;;;2.83;;
20154;SDS011;10238;49.556;10.956;2023-09-19T00:33:47;3.80;;;2.58;;
20154;SDS011;10238;49.556;10.956;2023-09-19T00:36:35;3.30;;;3.00;;
20154;SDS011;10238;49.556;10.956;2023-09-19T00:39:24;4.40;;;2.70;;
20154;SDS011;10238;49.556;10.956;2023-09-19T00:42:17;6.20;;;3.00;;
20154;SDS011;10238;49.556;10.956;2023-09-19T00:45:06;2.85;;;2.70;;
20154;SDS011;10238;49.556;10.956;2023-09-19T00:47:57;4.40;;;2.97;;
20154;SDS011;10238;49.556;10.956;2023-09-19T00:50:58;3.80;;;2.60;;
20154;SDS011;10238;49.556;10.956;2023-09-19T00:53:52;2.85;;;2.65;;
20154;SDS011;10238;49.556;10.956;2023-09-19T00:56:41;4.80;;;2.42;;
20154;SDS011;10238;49.556;10.956;2023-09-19T00:59:28;4.78;;;2.80;;
20154;SDS011;10238;49.556;10.956;2023-09-19T01:02:17;3.88;;;2.47;;
20154;SDS011;10238;49.556;10.956;2023-09-19T01:05:07;2.85;;;2.65;;
20154;SDS011;10238;49.556;10.956;2023-09-19T01:07:55;3.05;;;2.60;;
20154;SDS011;10238;49.556;10.956;2023-09-19T01:10:49;3.00;;;2.67;;
20154;SDS011;10238;49.556;10.956;2023-09-19T01:13:48;2.70;;;2.50;;
20154;SDS011;10238;49.556;10.956;2023-09-19T01:16:46;4.32;;;2.47;;
20154;SDS011;10238;49.556;10.956;2023-09-19T01:20:03;2.70;;;2.50;;
20154;SDS011;10238;49.556;10.956;2023-09-19T01:23:06;4.72;;;2.72;;
20154;SDS011;10238;49.556;10.956;2023-09-19T01:26:14;2.83;;;2.63;;
20154;SDS011;10238;49.556;10.956;2023-09-19T01:29:21;3.42;;;2.80;;
20154;SDS011;10238;49.556;10.956;2023-09-19T01:32:22;2.63;;;2.42;;
20154;SDS011;10238;49.556;10.956;2023-09-19T01:35:12;2.58;;;2.22;;
20154;SDS011;10238;49.556;10.956;2023-09-19T01:37:59;3.88;;;2.40;;
20154;SDS011;10238;49.556;10.956;2023-09-19T01:40:49;4.72;;;2.25;;
20154;SDS011;10238;49.556;10.956;2023-09-19T01:43:49;3.42;;;2.13;;
20154;SDS011;10238;49.556;10.956;2023-09-19T01:46:39;3.40;;;1.75;;
20154;SDS011;10238;49.556;10.956;2023-09-19T01:49:32;2.65;;;1.80;;
20154;SDS011;10238;49.556;10.956;2023-09-19T01:52:34;2.35;;;1.85;;
20154;SDS011;10238;49.556;10.956;2023-09-19T01:55:35;3.28;;;1.83;;
20154;SDS011;10238;49.556;10.956;2023-09-19T01:58:33;2.20;;;2.00;;
20154;SDS011;10238;49.556;10.956;2023-09-19T02:01:28;3.67;;;1.88;;
20154;SDS011;10238;49.556;10.956;2023-09-19T02:04:17;1.90;;;1.60;;
20154;SDS011;10238;49.556;10.956;2023-09-19T02:07:06;1.50;;;1.48;;
20154;SDS011;10238;49.556;10.956;2023-09-19T02:09:54;4.00;;;1.65;;
20154;SDS011;10238;49.556;10.956;2023-09-19T02:12:42;2.33;;;1.50;;
20154;SDS011;10238;49.556;10.956;2023-09-19T02:15:31;4.00;;;1.67;;
20154;SDS011;10238;49.556;10.956;2023-09-19T02:18:20;2.28;;;1.70;;
20154;SDS011;10238;49.556;10.956;2023-09-19T02:21:08;1.80;;;1.52;;
20154;SDS011;10238;49.556;10.956;2023-09-19T02:23:59;2.33;;;1.80;;
20154;SDS011;10238;49.556;10.956;2023-09-19T02:26:48;1.70;;;1.60;;
20154;SDS011;10238;49.556;10.956;2023-09-19T02:29:36;2.72;;;1.70;;
20154;SDS011;10238;49.556;10.956;2023-09-19T02:32:23;3.70;;;1.80;;
20154;SDS011;10238;49.556;10.956;2023-09-19T02:35:15;4.03;;;1.52;;
20154;SDS011;10238;49.556;10.956;2023-09-19T02:38:05;2.63;;;1.65;;
20154;SDS011;10238;49.556;10.956;2023-09-19T02:40:58;1.80;;;1.60;;
20154;SDS011;10238;49.556;10.956;2023-09-19T02:43:47;2.10;;;1.63;;
20154;SDS011;10238;49.556;10.956;2023-09-19T02:46:34;1.98;;;1.77;;
20154;SDS011;10238;49.556;10.956;2023-09-19T02:49:22;2.00;;;1.75;;
20154;SDS011;10238;49.556;10.956;2023-09-19T02:52:10;1.90;;;1.75;;
20154;SDS011;10238;49.556;10.956;2023-09-19T02:55:00;2.00;;;1.90;;
20154;SDS011;10238;49.556;10.956;2023-09-19T02:57:52;1.98;;;1.88;;
20154;SDS011;10238;49.556;10.956;2023-09-19T03:00:41;1.92;;;1.80;;
20154;SDS011;10238;49.556;10.956;2023-09-19T03:03:32;2.20;;;1.70;;
20154;SDS011;10238;49.556;10.956;2023-09-19T03:06:20;2.40;;;1.90;;
20154;SDS011;10238;49.556;10.956;2023-09-19T03:09:09;2.28;;;2.08;;
20154;SDS011;10238;49.556;10.956;2023-09-19T03:11:57;2.10;;;1.90;;
20154;SDS011;10238;49.556;10.956;2023-09-19T03:14:47;4.93;;;1.92;;
20154;SDS011;10238;49.556;10.956;2023-09-19T03:17:36;2.13;;;1.90;;
20154;SDS011;10238;49.556;10.956;2023-09-19T03:20:24;2.08;;;1.92;;
20154;SDS011;10238;49.556;10.956;2023-09-19T03:23:13;2.08;;;1.88;;
20154;SDS011;10238;49.556;10.956;2023-09-19T03:26:01;2.10;;;2.00;;
20154;SDS011;10238;49.556;10.956;2023-09-19T03:28:50;3.05;;;2.20;;
20154;SDS011;10238;49.556;10.956;2023-09-19T03:31:40;2.70;;;2.10;;
20154;SDS011;10238;49.556;10.956;2023-09-19T03:34:28;2.72;;;1.83;;
20154;SDS011;10238;49.556;10.956;2023-09-19T03:37:16;2.28;;;2.15;;
20154;SDS011;10238;49.556;10.956;2023-09-19T03:40:04;2.08;;;1.85;;
20154;SDS011;10238;49.556;10.956;2023-09-19T03:42:54;2.33;;;2.10;;
20154;SDS011;10238;49.556;10.956;2023-09-19T03:45:41;3.38;;;2.00;;
20154;SDS011;10238;49.556;10.956;2023-09-19T03:48:32;2.78;;;2.47;;
20154;SDS011;10238;49.556;10.956;2023-09-19T03:51:19;3.08;;;1.98;;
20154;SDS011;10238;49.556;10.956;2023-09-19T03:54:07;2.60;;;2.40;;
20154;SDS011;10238;49.556;10.956;2023-09-19T03:56:55;3.08;;;2.13;;
20154;SDS011;10238;49.556;10.956;2023-09-19T03:59:43;2.80;;;2.10;;
20154;SDS011;10238;49.556;10.956;2023-09-19T04:02:31;2.20;;;2.00;;
20154;SDS011;10238;49.556;10.956;2023-09-19T04:05:21;2.35;;;2.15;;
20154;SDS011;10238;49.556;10.956;2023-09-19T04:08:09;2.42;;;2.22;;
20154;SDS011;10238;49.556;10.956;2023-09-19T04:10:57;3.75;;;2.25;;
20154;SDS011;10238;49.556;10.956;2023-09-19T04:13:44;2.40;;;2.20;;
20154;SDS011;10238;49.556;10.956;2023-09-19T04:16:32;3.45;;;2.10;;
20154;SDS011;10238;49.556;10.956;2023-09-19T04:19:19;2.40;;;2.20;;
20154;SDS011;10238;49.556;10.956;2023-09-19T04:22:10;2.60;;;2.40;;
20154;SDS011;10238;49.556;10.956;2023-09-19T04:24:58;4.07;;;2.10;;
20154;SDS011;10238;49.556;10.956;2023-09-19T04:27:46;3.05;;;2.30;;
20154;SDS011;10238;49.556;10.956;2023-09-19T04:30:34;2.30;;;2.10;;
20154;SDS011;10238;49.556;10.956;2023-09-19T04:33:21;2.33;;;2.13;;
20154;SDS011;10238;49.556;10.956;2023-09-19T04:36:09;2.47;;;2.20;;
20154;SDS011;10238;49.556;10.956;2023-09-19T04:39:19;2.92;;;2.38;;
20154;SDS011;10238;49.556;10.956;2023-09-19T04:45:00;2.47;;;2.25;;
20154;SDS011;10238;49.556;10.956;2023-09-19T04:47:49;2.70;;;2.47;;
20154;SDS011;10238;49.556;10.956;2023-09-19T04:50:37;3.05;;;2.15;;
20154;SDS011;10238;49.556;10.956;2023-09-19T04:53:24;2.67;;;2.22;;
20154;SDS011;10238;49.556;10.956;2023-09-19T04:56:15;2.47;;;1.95;;
20154;SDS011;10238;49.556;10.956;2023-09-19T04:59:02;1.90;;;1.80;;
20154;SDS011;10238;49.556;10.956;2023-09-19T05:01:50;4.22;;;2.00;;
20154;SDS011;10238;49.556;10.956;2023-09-19T05:04:38;2.95;;;1.90;;
20154;SDS011;10238;49.556;10.956;2023-09-19T05:07:25;3.40;;;1.90;;
20154;SDS011;10238;49.556;10.956;2023-09-19T05:10:13;2.30;;;2.10;;
20154;SDS011;10238;49.556;10.956;2023-09-19T05:13:03;2.65;;;1.88;;
20154;SDS011;10238;49.556;10.956;2023-09-19T05:15:50;1.77;;;1.67;;
20154;SDS011;10238;49.556;10.956;2023-09-19T05:18:39;3.08;;;2.00;;
20154;SDS011;10238;49.556;10.956;2023-09-19T05:21:30;2.20;;;2.00;;
20154;SDS011;10238;49.556;10.956;2023-09-19T05:24:19;4.40;;;1.98;;
20154;SDS011;10238;49.556;10.956;2023-09-19T05:27:09;2.13;;;2.00;;
20154;SDS011;10238;49.556;10.956;2023-09-19T05:29:59;4.30;;;2.42;;
20154;SDS011;10238;49.556;10.956;2023-09-19T05:32:47;4.47;;;2.00;;
20154;SDS011;10238;49.556;10.956;2023-09-19T05:35:34;3.53;;;3.20;;
20154;SDS011;10238;49.556;10.956;2023-09-19T05:38:27;2.67;;;2.22;;
20154;SDS011;10238;49.556;10.956;2023-09-19T05:41:15;2.90;;;2.70;;
20154;SDS011;10238;49.556;10.956;2023-09-19T05:44:03;3.90;;;2.75;;
20154;SDS011;10238;49.556;10.956;2023-09-19T05:46:56;3.10;;;2.75;;
20154;SDS011;10238;49.556;10.956;2023-09-19T05:49:44;3.10;;;2.55;;
20154;SDS011;10238;49.556;10.956;2023-09-19T05:52:33;3.08;;;2.63;;
20154;SDS011;10238;49.556;10.956;2023-09-19T05:55:21;3.42;;;2.80;;
20154;SDS011;10238;49.556;10.956;2023-09-19T05:58:11;4.15;;;2.40;;
20154;SDS011;10238;49.556;10.956;2023-09-19T06:00:59;2.80;;;2.60;;
20154;SDS011;10238;49.556;10.956;2023-09-19T06:03:48;3.35;;;2.47;;
20154;SDS011;10238;49.556;10.956;2023-09-19T06:06:37;2.95;;;2.75;;
20154;SDS011;10238;49.556;10.956;2023-09-19T06:09:25;4.35;;;2.65;;
20154;SDS011;10238;49.556;10.956;2023-09-19T06:12:14;3.45;;;2.70;;
20154;SDS011;10238;49.556;10.956;2023-09-19T06:15:03;2.78;;;2.00;;
20154;SDS011;10238;49.556;10.956;2023-09-19T06:17:54;2.53;;;2.38;;
20154;SDS011;10238;49.556;10.956;2023-09-19T06:20:45;2.42;;;2.10;;
20154;SDS011;10238;49.556;10.956;2023-09-19T06:23:33;3.33;;;2.50;;
20154;SDS011;10238;49.556;10.956;2023-09-19T06:26:21;3.03;;;2.20;;
20154;SDS011;10238;49.556;10.956;2023-09-19T06:29:09;4.13;;;2.28;;
20154;SDS011;10238;49.556;10.956;2023-09-19T06:31:56;2.50;;;2.28;;
20154;SDS011;10238;49.556;10.956;2023-09-19T06:34:44;2.50;;;2.30;;
20154;SDS011;10238;49.556;10.956;2023-09-19T06:37:33;3.85;;;2.67;;
20154;SDS011;10238;49.556;10.956;2023-09-19T06:40:21;5.07;;;3.00;;
20154;SDS011;10238;49.556;10.956;2023-09-19T06:43:09;4.55;;;2.90;;
20154;SDS011;10238;49.556;10.956;2023-09-19T06:45:57;2.88;;;2.55;;
20154;SDS011;10238;49.556;10.956;2023-09-19T06:48:45;2.47;;;2.28;;
20154;SDS011;10238;49.556;10.956;2023-09-19T06:51:35;2.55;;;2.17;;
20154;SDS011;10238;49.556;10.956;2023-09-19T06:54:24;2.10;;;2.00;;
20154;SDS011;10238;49.556;10.956;2023-09-19T06:57:16;3.17;;;2.20;;
20154;SDS011;10238;49.556;10.956;2023-09-19T07:00:05;2.30;;;2.08;;
20154;SDS011;10238;49.556;10.956;2023-09-19T07:03:02;3.60;;;2.33;;
20154;SDS011;10238;49.556;10.956;2023-09-19T07:05:54;3.30;;;2.67;;
20154;SDS011;10238;49.556;10.956;2023-09-19T07:08:44;3.33;;;2.20;;
20154;SDS011;10238;49.556;10.956;2023-09-19T07:11:33;4.32;;;2.38;;
20154;SDS011;10238;49.556;10.956;2023-09-19T07:14:21;2.53;;;2.10;;
20154;SDS011;10238;49.556;10.956;2023-09-19T07:17:08;2.40;;;2.00;;
20154;SDS011;10238;49.556;10.956;2023-09-19T07:19:56;3.40;;;2.08;;
20154;SDS011;10238;49.556;10.956;2023-09-19T07:22:44;7.43;;;2.63;;
20154;SDS011;10238;49.556;10.956;2023-09-19T07:25:34;3.28;;;1.90;;
20154;SDS011;10238;49.556;10.956;2023-09-19T07:28:24;3.55;;;1.60;;
20154;SDS011;10238;49.556;10.956;2023-09-19T07:31:12;3.90;;;2.00;;
20154;SDS011;10238;49.556;10.956;2023-09-19T07:34:01;2.50;;;1.80;;
20154;SDS011;10238;49.556;10.956;2023-09-19T07:36:50;4.88;;;1.83;;
20154;SDS011;10238;49.556;10.956;2023-09-19T07:39:37;4.03;;;2.00;;
20154;SDS011;10238;49.556;10.956;2023-09-19T07:42:26;4.45;;;1.73;;
20154;SDS011;10238;49.556;10.956;2023-09-19T07:45:15;4.22;;;1.90;;
20154;SDS011;10238;49.556;10.956;2023-09-19T07:48:03;3.25;;;1.77;;
20154;SDS011;10238;49.556;10.956;2023-09-19T07:51:01;1.67;;;1.52;;
20154;SDS011;10238;49.556;10.956;2023-09-19T07:53:50;2.67;;;1.88;;
20154;SDS011;10238;49.556;10.956;2023-09-19T07:56:38;3.15;;;1.73;;
20154;SDS011;10238;49.556;10.956;2023-09-19T07:59:26;2.08;;;1.70;;
20154;SDS011;10238;49.556;10.956;2023-09-19T08:02:14;2.55;;;1.70;;
20154;SDS011;10238;49.556;10.956;2023-09-19T08:06:29;3.05;;;1.95;;
20154;SDS011;10238;49.556;10.956;2023-09-19T08:09:17;5.10;;;1.80;;
20154;SDS011;10238;49.556;10.956;2023-09-19T08:12:10;4.25;;;2.28;;
20154;SDS011;10238;49.556;10.956;2023-09-19T08:14:58;5.10;;;1.90;;
20154;SDS011;10238;49.556;10.956;2023-09-19T08:17:46;6.85;;;1.95;;
20154;SDS011;10238;49.556;10.956;2023-09-19T08:20:35;3.63;;;1.70;;
20154;SDS011;10238;49.556;10.956;2023-09-19T08:23:25;2.83;;;1.85;;
20154;SDS011;10238;49.556;10.956;2023-09-19T08:26:13;3.60;;;1.85;;
20154;SDS011;10238;49.556;10.956;2023-09-19T08:29:00;2.92;;;2.47;;
20154;SDS011;10238;49.556;10.956;2023-09-19T08:31:51;2.88;;;1.95;;
20154;SDS011;10238;49.556;10.956;2023-09-19T08:34:43;4.13;;;2.40;;
20154;SDS011;10238;49.556;10.956;2023-09-19T08:37:30;4.18;;;2.05;;
20154;SDS011;10238;49.556;10.956;2023-09-19T08:40:19;3.40;;;1.90;;
20154;SDS011;10238;49.556;10.956;2023-09-19T08:43:07;2.38;;;2.05;;
20154;SDS011;10238;49.556;10.956;2023-09-19T08:45:57;3.85;;;2.15;;
20154;SDS011;10238;49.556;10.956;2023-09-19T08:48:57;5.78;;;2.00;;
20154;SDS011;10238;49.556;10.956;2023-09-19T08:51:53;3.90;;;2.20;;
20154;SDS011;10238;49.556;10.956;2023-09-19T08:54:51;3.85;;;1.90;;
20154;SDS011;10238;49.556;10.956;2023-09-19T08:57:44;3.45;;;1.90;;
20154;SDS011;10238;49.556;10.956;2023-09-19T09:00:35;2.95;;;2.03;;
20154;SDS011;10238;49.556;10.956;2023-09-19T09:03:29;2.88;;;1.88;;
20154;SDS011;10238;49.556;10.956;2023-09-19T09:06:21;2.20;;;1.60;;
20154;SDS011;10238;49.556;10.956;2023-09-19T09:09:10;2.17;;;1.20;;
20154;SDS011;10238;49.556;10.956;2023-09-19T09:11:58;2.53;;;1.40;;
20154;SDS011;10238;49.556;10.956;2023-09-19T09:14:49;2.30;;;1.52;;
20154;SDS011;10238;49.556;10.956;2023-09-19T09:17:38;3.17;;;1.33;;
20154;SDS011;10238;49.556;10.956;2023-09-19T09:20:26;2.85;;;1.50;;
20154;SDS011;10238;49.556;10.956;2023-09-19T09:23:16;1.88;;;1.55;;
20154;SDS011;10238;49.556;10.956;2023-09-19T09:26:04;3.33;;;1.50;;
20154;SDS011;10238;49.556;10.956;2023-09-19T09:28:53;3.97;;;1.40;;
20154;SDS011;10238;49.556;10.956;2023-09-19T09:31:42;3.22;;;1.63;;
20154;SDS011;10238;49.556;10.956;2023-09-19T09:34:32;2.22;;;1.60;;
20154;SDS011;10238;49.556;10.956;2023-09-19T09:37:21;2.38;;;1.60;;
20154;SDS011;10238;49.556;10.956;2023-09-19T09:40:10;4.05;;;1.50;;
20154;SDS011;10238;49.556;10.956;2023-09-19T09:43:28;2.30;;;1.30;;
20154;SDS011;10238;49.556;10.956;2023-09-19T09:46:25;1.75;;;1.30;;
20154;SDS011;10238;49.556;10.956;2023-09-19T09:49:32;2.20;;;1.38;;
20154;SDS011;10238;49.556;10.956;2023-09-19T09:52:21;1.90;;;1.30;;
20154;SDS011;10238;49.556;10.956;2023-09-19T09:55:10;1.92;;;1.30;;
20154;SDS011;10238;49.556;10.956;2023-09-19T09:58:15;2.40;;;1.42;;
20154;SDS011;10238;49.556;10.956;2023-09-19T10:01:04;2.40;;;1.30;;
20154;SDS011;10238;49.556;10.956;2023-09-19T10:03:56;1.73;;;1.10;;
20154;SDS011;10238;49.556;10.956;2023-09-19T10:06:48;2.10;;;1.10;;
20154;SDS011;10238;49.556;10.956;2023-09-19T10:09:44;3.33;;;1.30;;
20154;SDS011;10238;49.556;10.956;2023-09-19T10:12:33;2.42;;;1.40;;
20154;SDS011;10238;49.556;10.956;2023-09-19T10:15:23;1.73;;;1.40;;
20154;SDS011;10238;49.556;10.956;2023-09-19T10:18:19;4.07;;;1.40;;
20154;SDS011;10238;49.556;10.956;2023-09-19T10:21:08;3.10;;;1.40;;
20154;SDS011;10238;49.556;10.956;2023-09-19T10:23:59;1.80;;;1.30;;
20154;SDS011;10238;49.556;10.956;2023-09-19T10:26:53;2.25;;;1.55;;
20154;SDS011;10238;49.556;10.956;2023-09-19T10:29:43;4.88;;;1.60;;
20154;SDS011;10238;49.556;10.956;2023-09-19T10:32:37;4.97;;;1.60;;
20154;SDS011;10238;49.556;10.956;2023-09-19T10:35:29;2.07;;;1.40;;
20154;SDS011;10238;49.556;10.956;2023-09-19T10:38:19;3.13;;;1.40;;
20154;SDS011;10238;49.556;10.956;2023-09-19T10:41:12;2.22;;;1.40;;
20154;SDS011;10238;49.556;10.956;2023-09-19T10:44:09;2.53;;;1.52;;
20154;SDS011;10238;49.556;10.956;2023-09-19T10:46:57;5.25;;;1.50;;
20154;SDS011;10238;49.556;10.956;2023-09-19T10:49:46;4.07;;;1.50;;
20154;SDS011;10238;49.556;10.956;2023-09-19T10:52:34;2.20;;;1.58;;
20154;SDS011;10238;49.556;10.956;2023-09-19T10:55:28;3.15;;;1.70;;
20154;SDS011;10238;49.556;10.956;2023-09-19T10:58:27;3.28;;;1.92;;
20154;SDS011;10238;49.556;10.956;2023-09-19T11:01:16;2.22;;;1.88;;
20154;SDS011;10238;49.556;10.956;2023-09-19T11:07:18;3.28;;;1.90;;
20154;SDS011;10238;49.556;10.956;2023-09-19T11:10:05;3.33;;;3.03;;
20154;SDS011;10238;49.556;10.956;2023-09-19T11:12:56;2.97;;;1.70;;
20154;SDS011;10238;49.556;10.956;2023-09-19T11:19:07;3.05;;;1.70;;
20154;SDS011;10238;49.556;10.956;2023-09-19T11:21:56;3.00;;;1.60;;
20154;SDS011;10238;49.556;10.956;2023-09-19T11:24:45;2.45;;;1.50;;
20154;SDS011;10238;49.556;10.956;2023-09-19T11:27:32;2.50;;;1.63;;
20154;SDS011;10238;49.556;10.956;2023-09-19T11:30:25;2.28;;;1.60;;
20154;SDS011;10238;49.556;10.956;2023-09-19T11:33:18;3.20;;;1.63;;
20154;SDS011;10238;49.556;10.956;2023-09-19T11:36:09;2.95;;;1.80;;
20154;SDS011;10238;49.556;10.956;2023-09-19T11:41:54;2.78;;;1.50;;
20154;SDS011;10238;49.556;10.956;2023-09-19T11:44:42;3.40;;;1.80;;
20154;SDS011;10238;49.556;10.956;2023-09-19T11:47:29;2.75;;;1.50;;
20154;SDS011;10238;49.556;10.956;2023-09-19T11:50:21;3.25;;;1.58;;
20154;SDS011;10238;49.556;10.956;2023-09-19T11:53:12;2.67;;;1.50;;
20154;SDS011;10238;49.556;10.956;2023-09-19T11:56:04;1.50;;;1.40;;
20154;SDS011;10238;49.556;10.956;2023-09-19T11:58:56;1.48;;;1.38;;
20154;SDS011;10238;49.556;10.956;2023-09-19T12:01:50;2.30;;;1.45;;
20154;SDS011;10238;49.556;10.956;2023-09-19T12:04:43;1.63;;;1.50;;
20154;SDS011;10238;49.556;10.956;2023-09-19T12:07:43;2.30;;;1.48;;
20154;SDS011;10238;49.556;10.956;2023-09-19T12:10:33;2.35;;;1.60;;
20154;SDS011;10238;49.556;10.956;2023-09-19T12:13:32;5.25;;;1.58;;
20154;SDS011;10238;49.556;10.956;2023-09-19T12:16:20;2.53;;;1.40;;
20154;SDS011;10238;49.556;10.956;2023-09-19T12:19:18;1.35;;;1.13;;
20154;SDS011;10238;49.556;10.956;2023-09-19T12:22:08;2.80;;;1.15;;
20154;SDS011;10238;49.556;10.956;2023-09-19T12:25:03;5.28;;;1.50;;
20154;SDS011;10238;49.556;10.956;2023-09-19T12:27:54;1.73;;;1.30;;
20154;SDS011;10238;49.556;10.956;2023-09-19T12:30:43;1.73;;;1.13;;
20154;SDS011;10238;49.556;10.956;2023-09-19T12:33:31;2.17;;;1.40;;
20154;SDS011;10238;49.556;10.956;2023-09-19T12:36:20;3.22;;;1.30;;
20154;SDS011;10238;49.556;10.956;2023-09-19T12:39:23;2.40;;;1.50;;
20154;SDS011;10238;49.556;10.956;2023-09-19T12:42:13;3.13;;;1.67;;
20154;SDS011;10238;49.556;10.956;2023-09-19T12:45:01;3.72;;;1.50;;
20154;SDS011;10238;49.556;10.956;2023-09-19T12:51:08;4.07;;;1.60;;
20154;SDS011;10238;49.556;10.956;2023-09-19T12:53:59;3.10;;;1.63;;
20154;SDS011;10238;49.556;10.956;2023-09-19T12:56:48;2.50;;;1.67;;
20154;SDS011;10238;49.556;10.956;2023-09-19T12:59:37;4.20;;;1.50;;
20154;SDS011;10238;49.556;10.956;2023-09-19T13:02:26;1.80;;;1.35;;
20154;SDS011;10238;49.556;10.956;2023-09-19T13:05:14;1.70;;;1.60;;
20154;SDS011;10238;49.556;10.956;2023-09-19T13:08:05;2.50;;;1.40;;
20154;SDS011;10238;49.556;10.956;2023-09-19T13:11:07;3.25;;;1.55;;
20154;SDS011;10238;49.556;10.956;2023-09-19T13:14:12;3.22;;;1.52;;
20154;SDS011;10238;49.556;10.956;2023-09-19T13:17:07;4.38;;;1.58;;
20154;SDS011;10238;49.556;10.956;2023-09-19T13:20:02;3.40;;;1.60;;
20154;SDS011;10238;49.556;10.956;2023-09-19T13:22:53;1.90;;;1.52;;
20154;SDS011;10238;49.556;10.956;2023-09-19T13:25:44;3.20;;;1.40;;
20154;SDS011;10238;49.556;10.956;2023-09-19T13:28:33;4.18;;;1.70;;
20154;SDS011;10238;49.556;10.956;2023-09-19T13:31:21;3.45;;;1.67;;
20154;SDS011;10238;49.556;10.956;2023-09-19T13:34:11;4.40;;;1.50;;
20154;SDS011;10238;49.556;10.956;2023-09-19T13:37:01;2.33;;;1.38;;
20154;SDS011;10238;49.556;10.956;2023-09-19T13:39:50;1.85;;;1.65;;
20154;SDS011;10238;49.556;10.956;2023-09-19T13:42:38;2.03;;;1.42;;
20154;SDS011;10238;49.556;10.956;2023-09-19T13:45:26;2.47;;;1.98;;
20154;SDS011;10238;49.556;10.956;2023-09-19T13:48:16;6.75;;;1.70;;
20154;SDS011;10238;49.556;10.956;2023-09-19T13:51:09;4.07;;;1.70;;
20154;SDS011;10238;49.556;10.956;2023-09-19T13:53:57;3.05;;;1.50;;
20154;SDS011;10238;49.556;10.956;2023-09-19T13:56:45;3.95;;;1.77;;
20154;SDS011;10238;49.556;10.956;2023-09-19T13:59:33;4.15;;;1.70;;
20154;SDS011;10238;49.556;10.956;2023-09-19T14:02:20;2.42;;;1.60;;
20154;SDS011;10238;49.556;10.956;2023-09-19T14:05:09;2.63;;;1.77;;
20154;SDS011;10238;49.556;10.956;2023-09-19T14:07:59;3.05;;;1.30;;
20154;SDS011;10238;49.556;10.956;2023-09-19T14:10:49;2.90;;;1.70;;
20154;SDS011;10238;49.556;10.956;2023-09-19T14:13:37;1.85;;;1.70;;
20154;SDS011;10238;49.556;10.956;2023-09-19T14:16:25;3.33;;;1.70;;
20154;SDS011;10238;49.556;10.956;2023-09-19T14:19:15;3.30;;;1.40;;
20154;SDS011;10238;49.556;10.956;2023-09-19T14:22:03;3.05;;;1.60;;
20154;SDS011;10238;49.556;10.956;2023-09-19T14:24:55;2.13;;;1.63;;
20154;SDS011;10238;49.556;10.956;2023-09-19T14:27:46;1.83;;;1.65;;
20154;SDS011;10238;49.556;10.956;2023-09-19T14:30:34;2.85;;;1.70;;
20154;SDS011;10238;49.556;10.956;2023-09-19T14:33:23;3.33;;;1.40;;
20154;SDS011;10238;49.556;10.956;2023-09-19T14:36:10;4.18;;;1.85;;
20154;SDS011;10238;49.556;10.956;2023-09-19T14:38:59;2.60;;;1.58;;
20154;SDS011;10238;49.556;10.956;2023-09-19T14:41:49;2.65;;;1.40;;
20154;SDS011;10238;49.556;10.956;2023-09-19T14:44:37;2.58;;;1.55;;
20154;SDS011;10238;49.556;10.956;2023-09-19T14:47:24;7.72;;;1.60;;
20154;SDS011;10238;49.556;10.956;2023-09-19T14:50:13;4.57;;;1.40;;
20154;SDS011;10238;49.556;10.956;2023-09-19T14:53:02;3.35;;;1.45;;
20154;SDS011;10238;49.556;10.956;2023-09-19T14:55:55;3.75;;;1.40;;
20154;SDS011;10238;49.556;10.956;2023-09-19T14:58:45;1.70;;;1.60;;
20154;SDS011;10238;49.556;10.956;2023-09-19T15:01:33;3.17;;;1.73;;
20154;SDS011;10238;49.556;10.956;2023-09-19T15:04:21;2.83;;;1.58;;
20154;SDS011;10238;49.556;10.956;2023-09-19T15:07:09;2.90;;;1.45;;
20154;SDS011;10238;49.556;10.956;2023-09-19T15:09:57;3.30;;;1.50;;
20154;SDS011;10238;49.556;10.956;2023-09-19T15:12:45;3.38;;;1.50;;
20154;SDS011;10238;49.556;10.956;2023-09-19T15:15:34;3.58;;;1.55;;
20154;SDS011;10238;49.556;10.956;2023-09-19T15:18:22;2.20;;;1.58;;
20154;SDS011;10238;49.556;10.956;2023-09-19T15:21:11;3.67;;;1.60;;
20154;SDS011;10238;49.556;10.956;2023-09-19T15:23:59;2.75;;;1.50;;
20154;SDS011;10238;49.556;10.956;2023-09-19T15:26:48;2.78;;;1.63;;
20154;SDS011;10238;49.556;10.956;2023-09-19T15:29:36;3.90;;;1.60;;
20154;SDS011;10238;49.556;10.956;2023-09-19T15:32:25;2.00;;;1.40;;
20154;SDS011;10238;49.556;10.956;2023-09-19T15:35:14;2.22;;;1.40;;
20154;SDS011;10238;49.556;10.956;2023-09-19T15:38:03;1.95;;;1.40;;
20154;SDS011;10238;49.556;10.956;2023-09-19T15:40:51;2.20;;;1.73;;
20154;SDS011;10238;49.556;10.956;2023-09-19T15:43:38;1.40;;;1.30;;
20154;SDS011;10238;49.556;10.956;2023-09-19T15:46:26;2.00;;;1.50;;
20154;SDS011;10238;49.556;10.956;2023-09-19T15:49:17;1.83;;;1.38;;
20154;SDS011;10238;49.556;10.956;2023-09-19T15:52:05;2.00;;;1.40;;
20154;SDS011;10238;49.556;10.956;2023-09-19T15:54:54;3.33;;;1.50;;
20154;SDS011;10238;49.556;10.956;2023-09-19T15:57:41;1.92;;;1.30;;
20154;SDS011;10238;49.556;10.956;2023-09-19T16:00:30;2.35;;;1.60;;
20154;SDS011;10238;49.556;10.956;2023-09-19T16:03:19;1.70;;;1.40;;
20154;SDS011;10238;49.556;10.956;2023-09-19T16:06:09;2.55;;;1.88;;
20154;SDS011;10238;49.556;10.956;2023-09-19T16:08:58;4.15;;;1.70;;
20154;SDS011;10238;49.556;10.956;2023-09-19T16:11:49;5.27;;;1.63;;
20154;SDS011;10238;49.556;10.956;2023-09-19T16:14:36;1.73;;;1.63;;
20154;SDS011;10238;49.556;10.956;2023-09-19T16:17:24;2.15;;;1.42;;
20154;SDS011;10238;49.556;10.956;2023-09-19T16:20:12;1.77;;;1.50;;
20154;SDS011;10238;49.556;10.956;2023-09-19T16:23:04;1.63;;;1.40;;
20154;SDS011;10238;49.556;10.956;2023-09-19T16:25:59;2.95;;;1.48;;
20154;SDS011;10238;49.556;10.956;2023-09-19T16:28:51;1.35;;;1.20;;
20154;SDS011;10238;49.556;10.956;2023-09-19T16:31:42;2.50;;;1.25;;
20154;SDS011;10238;49.556;10.956;2023-09-19T16:34:31;5.97;;;2.03;;
20154;SDS011;10238;49.556;10.956;2023-09-19T16:37:18;2.20;;;1.40;;
20154;SDS011;10238;49.556;10.956;2023-09-19T16:40:08;2.38;;;1.38;;
20154;SDS011;10238;49.556;10.956;2023-09-19T16:42:56;2.75;;;1.70;;
20154;SDS011;10238;49.556;10.956;2023-09-19T16:45:51;2.50;;;1.45;;
20154;SDS011;10238;49.556;10.956;2023-09-19T16:48:40;4.25;;;1.48;;
20154;SDS011;10238;49.556;10.956;2023-09-19T16:51:48;5.03;;;1.63;;
20154;SDS011;10238;49.556;10.956;2023-09-19T16:54:35;2.25;;;1.60;;
20154;SDS011;10238;49.556;10.956;2023-09-19T16:57:25;2.13;;;1.52;;
20154;SDS011;10238;49.556;10.956;2023-09-19T17:00:13;3.40;;;1.23;;
20154;SDS011;10238;49.556;10.956;2023-09-19T17:03:04;2.35;;;1.83;;
20154;SDS011;10238;49.556;10.956;2023-09-19T17:05:56;1.65;;;1.35;;
20154;SDS011;10238;49.556;10.956;2023-09-19T17:08:44;1.58;;;1.40;;